createdAt,value
2019-02-14T00:04:47.174Z,9.00
2019-02-14T00:09:50.910Z,8.77
2019-02-14T00:14:54.802Z,9.10
2019-02-14T00:19:58.462Z,10.40
2019-02-14T00:25:02.307Z,10.13
2019-02-14T00:30:06.249Z,10.70
2019-02-14T00:35:09.912Z,11.47
2019-02-14T00:40:13.651Z,10.47
2019-02-14T00:45:17.327Z,11.03
2019-02-14T00:50:21.003Z,10.70
2019-02-14T00:55:24.800Z,10.67
2019-02-14T01:00:28.551Z,9.80
2019-02-14T01:05:33.861Z,10.67
2019-02-14T01:10:37.668Z,9.80
2019-02-14T01:15:42.330Z,10.10
2019-02-14T01:20:46.024Z,10.67
2019-02-14T01:25:49.736Z,10.03
2019-02-14T01:30:55.868Z,10.80
2019-02-14T01:35:59.587Z,11.70
2019-02-14T01:41:03.246Z,12.80
2019-02-14T01:46:06.974Z,12.60
2019-02-14T01:51:10.750Z,12.17
2019-02-14T01:56:14.437Z,11.93
2019-02-14T02:01:18.124Z,11.17
2019-02-14T02:06:21.932Z,12.07
2019-02-14T02:11:25.720Z,10.60
2019-02-14T02:16:29.466Z,10.73
2019-02-14T02:21:33.164Z,10.67
2019-02-14T02:26:36.883Z,10.13
2019-02-14T02:31:40.687Z,9.47
2019-02-14T02:36:44.502Z,9.80
2019-02-14T02:41:48.249Z,10.10
2019-02-14T02:46:51.893Z,9.13
2019-02-14T02:51:56.070Z,8.70
2019-02-14T02:56:59.730Z,8.20
2019-02-14T03:02:03.401Z,9.23
2019-02-14T03:07:07.373Z,8.73
2019-02-14T03:12:11.396Z,8.33
2019-02-14T03:17:15.122Z,8.50
2019-02-14T03:22:21.164Z,7.27
2019-02-14T03:27:24.776Z,7.47
2019-02-14T03:32:28.464Z,7.20
2019-02-14T03:37:32.291Z,7.13
2019-02-14T03:42:35.977Z,6.93
2019-02-14T03:47:39.707Z,8.00
2019-02-14T03:52:43.425Z,6.73
2019-02-14T03:57:47.125Z,6.33
2019-02-14T04:02:50.883Z,6.47
2019-02-14T04:07:54.653Z,5.30
2019-02-14T04:12:58.298Z,6.97
2019-02-14T04:18:01.985Z,6.07
2019-02-14T04:23:05.639Z,5.53
2019-02-14T04:28:09.326Z,5.23
2019-02-14T04:33:13.063Z,5.10
2019-02-14T04:38:16.853Z,4.87
2019-02-14T04:43:20.569Z,5.00
2019-02-14T04:48:24.266Z,5.17
2019-02-14T04:53:29.775Z,4.43
2019-02-14T04:58:33.529Z,4.43
2019-02-14T05:03:37.262Z,4.60
2019-02-14T05:08:40.923Z,4.10
2019-02-14T05:13:44.660Z,4.20
2019-02-14T05:18:48.425Z,4.60
2019-02-14T05:23:52.133Z,4.17
2019-02-14T05:28:55.840Z,3.80
2019-02-14T05:33:59.552Z,4.77
2019-02-14T05:39:04.567Z,4.30
2019-02-14T05:44:08.521Z,3.53
2019-02-14T05:49:12.257Z,3.53
2019-02-14T05:54:15.997Z,3.70
2019-02-14T05:59:19.757Z,4.20
2019-02-14T06:04:23.480Z,3.47
2019-02-14T06:09:27.257Z,4.30
2019-02-14T06:14:31.032Z,4.07
2019-02-14T06:19:34.965Z,4.17
2019-02-14T06:24:38.708Z,3.47
2019-02-14T06:29:42.697Z,3.60
2019-02-14T06:34:46.509Z,3.80
2019-02-14T06:39:50.552Z,3.77
2019-02-14T06:44:54.415Z,3.63
2019-02-14T06:49:58.183Z,4.17
2019-02-14T06:55:01.867Z,3.80
2019-02-14T07:00:06.550Z,3.73
2019-02-14T07:05:10.523Z,4.20
2019-02-14T07:10:14.280Z,3.53
2019-02-14T07:15:18.329Z,3.83
2019-02-14T07:20:22.122Z,3.47
2019-02-14T07:25:25.854Z,3.67
2019-02-14T07:30:30.059Z,4.30
2019-02-14T07:35:33.848Z,3.43
2019-02-14T07:40:37.754Z,3.23
2019-02-14T07:45:41.548Z,3.10
2019-02-14T07:50:45.482Z,3.33
2019-02-14T07:55:49.508Z,3.10
2019-02-14T08:00:53.227Z,3.33
2019-02-14T08:05:56.940Z,3.20
2019-02-14T08:11:00.772Z,3.43
2019-02-14T08:16:04.491Z,2.87
2019-02-14T08:21:08.780Z,3.37
2019-02-14T08:26:12.575Z,3.30
2019-02-14T08:31:16.424Z,3.50
2019-02-14T08:36:20.134Z,2.90
2019-02-14T08:41:23.940Z,2.87
2019-02-14T08:46:27.844Z,2.90
2019-02-14T08:51:32.601Z,3.07
2019-02-14T08:56:37.126Z,3.07
2019-02-14T09:02:00.248Z,3.33
2019-02-14T09:07:04.054Z,3.57
2019-02-14T09:12:08.123Z,3.30
2019-02-14T09:17:11.843Z,3.10
2019-02-14T09:22:15.615Z,3.10
2019-02-14T09:27:19.328Z,3.37
2019-02-14T09:32:26.102Z,3.47
2019-02-14T09:37:29.945Z,3.17
2019-02-14T09:42:33.837Z,2.73
2019-02-14T09:47:37.663Z,3.07
2019-02-14T09:52:41.617Z,2.90
2019-02-14T09:57:51.383Z,3.00
2019-02-14T10:02:55.168Z,2.70
2019-02-14T10:07:58.975Z,2.93
2019-02-14T10:13:03.123Z,3.03
2019-02-14T10:18:06.877Z,3.17
2019-02-14T10:23:10.790Z,3.67
2019-02-14T10:28:14.524Z,3.70
2019-02-14T10:33:18.254Z,4.07
2019-02-14T10:38:22.796Z,3.60
2019-02-14T10:43:26.769Z,3.20
2019-02-14T10:48:31.751Z,3.87
2019-02-14T10:53:35.452Z,3.00
2019-02-14T10:58:39.221Z,3.43
2019-02-14T11:03:43.195Z,3.10
2019-02-14T11:08:46.887Z,3.53
2019-02-14T11:13:50.790Z,2.97
2019-02-14T11:18:54.629Z,2.97
2019-02-14T11:23:58.731Z,2.97
2019-02-14T11:29:02.741Z,2.93
2019-02-14T11:34:07.512Z,2.93
2019-02-14T11:39:12.525Z,3.00
2019-02-14T11:44:16.716Z,3.10
2019-02-14T11:49:20.584Z,2.83
2019-02-14T11:54:25.661Z,3.67
2019-02-14T11:59:30.300Z,3.30
2019-02-14T12:04:34.134Z,2.83
2019-02-14T12:09:38.032Z,2.70
2019-02-14T12:14:41.739Z,3.10
2019-02-14T12:19:45.553Z,3.30
2019-02-14T12:24:49.380Z,3.40
2019-02-14T12:29:53.468Z,2.87
2019-02-14T12:34:57.418Z,2.80
2019-02-14T12:40:01.318Z,2.80
2019-02-14T12:45:05.685Z,3.20
2019-02-14T12:50:10.064Z,3.30
2019-02-14T12:55:13.988Z,2.83
2019-02-14T13:00:19.409Z,2.50
2019-02-14T13:05:23.196Z,3.37
2019-02-14T13:10:26.929Z,2.80
2019-02-14T13:15:30.765Z,2.70
2019-02-14T13:20:34.587Z,2.90
2019-02-14T13:25:38.516Z,2.57
2019-02-14T13:30:42.258Z,2.60
2019-02-14T13:35:45.946Z,2.73
2019-02-14T13:40:49.879Z,2.73
2019-02-14T13:45:53.970Z,2.20
2019-02-14T13:50:57.708Z,2.30
2019-02-14T13:56:02.373Z,2.50
2019-02-14T14:01:06.031Z,2.87
2019-02-14T14:06:09.878Z,2.50
2019-02-14T14:11:13.590Z,2.53
2019-02-14T14:16:19.689Z,2.30
2019-02-14T14:21:23.576Z,2.53
2019-02-14T14:26:27.559Z,2.03
2019-02-14T14:31:31.451Z,2.63
2019-02-14T14:36:35.202Z,2.57
2019-02-14T14:41:39.034Z,2.67
2019-02-14T14:46:55.901Z,2.40
2019-02-14T14:52:00.943Z,2.77
2019-02-14T14:57:04.738Z,4.40
2019-02-14T15:02:08.789Z,4.10
2019-02-14T15:07:12.722Z,4.13
2019-02-14T15:12:16.713Z,3.50
2019-02-14T15:17:20.542Z,3.80
2019-02-14T15:22:25.303Z,3.93
2019-02-14T15:27:29.033Z,3.23
2019-02-14T15:32:32.760Z,3.27
2019-02-14T15:37:36.553Z,3.23
2019-02-14T15:42:40.288Z,3.53
2019-02-14T15:47:48.091Z,3.10
2019-02-14T15:52:52.798Z,3.20
2019-02-14T15:57:58.628Z,2.70
2019-02-14T16:03:03.525Z,2.97
2019-02-14T16:08:07.296Z,2.47
2019-02-14T16:13:11.539Z,2.57
2019-02-14T16:18:15.614Z,2.50
2019-02-14T16:23:19.351Z,2.53
2019-02-14T16:28:23.227Z,3.10
2019-02-14T16:33:27.029Z,3.07
2019-02-14T16:38:30.911Z,2.40
2019-02-14T16:43:35.001Z,2.33
2019-02-14T16:48:39.648Z,2.83
2019-02-14T16:53:43.578Z,2.70
2019-02-14T16:58:47.306Z,2.90
2019-02-14T17:03:51.037Z,3.00
2019-02-14T17:08:55.449Z,3.03
2019-02-14T17:13:59.274Z,2.70
2019-02-14T17:19:03.137Z,3.20
2019-02-14T17:24:07.022Z,2.50
2019-02-14T17:29:12.275Z,3.17
2019-02-14T17:34:16.105Z,3.30
2019-02-14T17:39:19.942Z,2.67
2019-02-14T17:44:24.271Z,3.43
2019-02-14T17:49:28.154Z,2.93
2019-02-14T17:54:31.929Z,2.80
2019-02-14T17:59:37.347Z,3.30
2019-02-14T18:04:41.202Z,3.20
2019-02-14T18:09:44.996Z,3.90
2019-02-14T18:14:50.187Z,3.60
2019-02-14T18:19:56.757Z,3.63
2019-02-14T18:25:00.666Z,4.17
2019-02-14T18:30:04.731Z,4.10
2019-02-14T18:35:09.012Z,4.27
2019-02-14T18:40:13.064Z,4.30
2019-02-14T18:45:16.862Z,4.27
2019-02-14T18:50:23.863Z,5.07
2019-02-14T18:55:27.647Z,5.10
2019-02-14T19:00:31.438Z,4.73
2019-02-14T19:05:35.307Z,4.30
2019-02-14T19:10:39.318Z,4.43
2019-02-14T19:15:43.294Z,4.70
2019-02-14T19:20:46.997Z,4.67
2019-02-14T19:25:50.819Z,4.70
2019-02-14T19:30:57.545Z,5.90
2019-02-14T19:36:01.382Z,5.40
2019-02-14T19:41:05.347Z,6.33
2019-02-14T19:46:09.150Z,6.20
2019-02-14T19:51:13.084Z,6.07
2019-02-14T19:56:16.822Z,5.50
2019-02-14T20:01:20.542Z,6.80
2019-02-14T20:06:24.368Z,5.60
2019-02-14T20:11:36.511Z,6.20
2019-02-14T20:16:36.855Z,5.60
2019-02-14T20:21:40.594Z,5.57
2019-02-14T20:26:44.377Z,5.40
2019-02-14T20:31:48.166Z,5.63
2019-02-14T20:36:51.868Z,5.33
2019-02-14T20:41:55.638Z,6.80
2019-02-14T20:46:59.476Z,6.53
2019-02-14T20:52:03.213Z,5.67
2019-02-14T20:57:06.993Z,5.13
2019-02-14T21:02:11.029Z,5.23
2019-02-14T21:07:14.797Z,4.70
2019-02-14T21:12:18.730Z,5.43
2019-02-14T21:17:22.544Z,5.87
2019-02-14T21:22:31.873Z,4.47
2019-02-14T21:27:35.636Z,5.50
2019-02-14T21:32:39.457Z,4.97
2019-02-14T21:37:47.285Z,5.00
2019-02-14T21:42:51.158Z,5.67
2019-02-14T21:47:55.298Z,4.50
2019-02-14T21:53:01.168Z,5.53
2019-02-14T21:58:05.858Z,5.47
2019-02-14T22:03:10.078Z,4.90
2019-02-14T22:08:16.271Z,4.80
2019-02-14T22:13:20.048Z,4.50
2019-02-14T22:18:23.822Z,4.90
2019-02-14T22:23:27.607Z,6.30
2019-02-14T22:28:31.391Z,6.70
2019-02-14T22:33:36.691Z,6.97
2019-02-14T22:38:40.381Z,6.90
2019-02-14T22:43:44.077Z,5.40
2019-02-14T22:48:47.791Z,5.10
2019-02-14T22:53:51.729Z,5.80
2019-02-14T22:58:55.516Z,5.33
2019-02-14T23:03:59.334Z,5.33
2019-02-14T23:09:04.422Z,5.60
2019-02-14T23:14:08.113Z,6.93
2019-02-14T23:19:11.795Z,7.67
2019-02-14T23:24:15.465Z,7.87
2019-02-14T23:29:19.363Z,9.53
2019-02-14T23:34:23.319Z,9.63
2019-02-14T23:39:27.076Z,9.70
2019-02-14T23:44:30.841Z,10.13
2019-02-14T23:49:34.508Z,10.50
2019-02-14T23:54:38.201Z,9.40
2019-02-14T23:59:41.864Z,9.60
